createdAt,value
2019-06-21T14:11:16.591Z,97837.78
2019-06-21T14:13:45.236Z,97837.56
2019-06-21T14:16:13.550Z,97838.34
2019-06-21T14:18:41.924Z,97839.72
2019-06-21T14:21:10.259Z,97840.70
2019-06-21T14:23:38.660Z,97836.20
2019-06-21T14:26:15.874Z,97833.64
2019-06-21T14:28:44.191Z,97837.58
2019-06-21T14:31:12.675Z,97835.81
2019-06-21T14:33:41.105Z,97835.29
2019-06-21T14:36:09.377Z,97828.77
2019-06-21T14:38:37.780Z,97813.55
2019-06-21T14:41:06.211Z,97827.00
2019-06-21T14:43:34.665Z,97831.34
2019-06-21T14:46:07.059Z,97822.48
2019-06-21T14:48:33.159Z,97818.91
2019-06-21T14:51:03.065Z,97816.13
2019-06-21T14:53:31.645Z,97823.23
2019-06-21T14:56:01.162Z,97825.23
2019-06-21T14:58:30.083Z,97830.73
2019-06-21T15:01:00.394Z,97829.19
2019-06-21T15:03:28.555Z,97830.17
2019-06-21T15:05:58.056Z,97827.60
2019-06-21T15:08:26.994Z,97818.32
2019-06-21T15:10:56.096Z,97820.27
2019-06-21T15:13:25.406Z,97821.23
2019-06-21T15:15:54.933Z,97824.19
2019-06-21T15:18:24.001Z,97818.66
2019-06-21T15:20:52.315Z,97815.14
2019-06-21T15:23:20.812Z,97811.59
2019-06-21T15:25:49.109Z,97807.83
2019-06-21T15:28:17.480Z,97813.19
2019-06-21T15:30:45.983Z,97813.33
2019-06-21T15:33:14.388Z,97805.86
2019-06-21T15:35:42.795Z,97807.59
2019-06-21T15:38:11.084Z,97809.96
2019-06-21T15:40:39.427Z,97810.53
2019-06-21T15:43:08.061Z,97811.91
2019-06-21T15:45:36.488Z,97803.02
2019-06-21T15:48:05.538Z,97803.61
2019-06-21T15:50:34.361Z,97798.89
2019-06-21T15:53:04.002Z,97799.43
2019-06-21T15:55:32.570Z,97791.18
2019-06-21T15:58:01.765Z,97787.48
2019-06-21T16:00:30.230Z,97782.37
2019-06-21T16:03:00.200Z,97774.48
2019-06-21T16:05:28.905Z,97783.77
2019-06-21T16:07:58.715Z,97779.23
2019-06-21T16:10:27.480Z,97775.34
2019-06-21T16:12:55.840Z,97772.52
2019-06-21T16:15:24.333Z,97778.72
2019-06-21T16:17:52.787Z,97778.10
2019-06-21T16:20:21.679Z,97772.66
2019-06-21T16:22:50.145Z,97775.10
2019-06-21T16:25:22.335Z,97780.67
2019-06-21T16:27:49.114Z,97775.55
2019-06-21T16:30:19.497Z,97769.38
2019-06-21T16:32:47.816Z,97781.67
2019-06-21T16:35:16.320Z,97783.09
2019-06-21T16:37:44.613Z,97773.87
2019-06-21T16:40:13.420Z,97775.13
2019-06-21T16:42:41.811Z,97782.22
2019-06-21T16:45:10.693Z,97774.40
2019-06-21T16:47:40.959Z,97779.88
2019-06-21T16:50:11.667Z,97793.39
2019-06-21T16:52:40.073Z,97793.60
2019-06-21T16:55:08.420Z,97794.39
2019-06-21T16:57:36.901Z,97799.42
2019-06-21T17:00:08.972Z,97795.73
2019-06-21T17:02:37.489Z,97796.38
2019-06-21T17:05:09.861Z,97797.20
2019-06-21T17:07:38.606Z,97797.64
2019-06-21T17:10:09.905Z,97802.00
2019-06-21T17:12:38.241Z,97806.19
2019-06-21T17:15:07.410Z,97800.70
2019-06-21T17:17:35.881Z,97804.22
2019-06-21T17:20:05.625Z,97804.00
2019-06-21T17:22:34.040Z,97809.30
2019-06-21T17:25:02.411Z,97810.84
2019-06-21T17:27:30.812Z,97816.15
2019-06-21T17:29:59.097Z,97818.08
2019-06-21T17:32:27.425Z,97818.08
2019-06-21T17:34:56.190Z,97818.84
2019-06-21T17:37:24.825Z,97819.02
2019-06-21T17:39:53.259Z,97821.97
2019-06-21T17:42:21.674Z,97823.73
2019-06-21T17:44:51.033Z,97820.98
2019-06-21T17:47:19.514Z,97819.39
2019-06-21T17:49:47.921Z,97824.87
2019-06-21T17:52:17.979Z,97818.27
2019-06-21T17:54:46.448Z,97821.63
2019-06-21T17:57:14.839Z,97823.59
2019-06-21T17:59:43.422Z,97828.89
2019-06-21T18:02:11.700Z,97827.72
2019-06-21T18:04:40.118Z,97833.02
2019-06-21T18:07:08.418Z,97839.44
2019-06-21T18:09:36.997Z,97836.03
2019-06-21T18:12:05.396Z,97833.80
2019-06-21T18:14:33.862Z,97829.22
2019-06-21T18:17:03.421Z,97830.34
2019-06-21T18:19:31.953Z,97832.72
2019-06-21T18:22:00.447Z,97843.66
2019-06-21T18:24:28.757Z,97841.12
2019-06-21T18:26:57.157Z,97845.16
2019-06-21T18:29:25.567Z,97846.00
2019-06-21T18:31:53.948Z,97841.88
2019-06-21T18:34:22.453Z,97844.79
2019-06-21T18:36:50.865Z,97847.33
2019-06-21T18:39:19.478Z,97842.16
2019-06-21T18:41:47.987Z,97845.77
2019-06-21T18:44:16.330Z,97850.56
2019-06-21T18:46:44.640Z,97851.64
2019-06-21T18:49:13.047Z,97847.11
2019-06-21T18:51:41.732Z,97849.84
2019-06-21T18:54:10.222Z,97856.50
2019-06-21T18:56:38.663Z,97858.95
2019-06-21T18:59:07.038Z,97859.48
2019-06-21T19:01:35.484Z,97859.17
2019-06-21T19:04:03.920Z,97859.22
2019-06-21T19:06:32.276Z,97862.13
2019-06-21T19:09:00.797Z,97869.16
2019-06-21T19:11:29.154Z,97862.38
2019-06-21T19:13:57.539Z,97865.52
2019-06-21T19:16:25.940Z,97857.86
2019-06-21T19:18:54.215Z,97870.99
2019-06-21T19:21:22.571Z,97869.25
2019-06-21T19:23:50.875Z,97874.87
2019-06-21T19:26:19.345Z,97884.70
2019-06-21T19:28:47.681Z,97887.97
2019-06-21T19:31:17.653Z,97891.98
2019-06-21T19:33:45.959Z,97891.73
2019-06-21T19:36:14.773Z,97894.42
2019-06-21T19:38:43.127Z,97891.47
2019-06-21T19:41:11.719Z,97896.02
2019-06-21T19:43:40.246Z,97901.33
2019-06-21T19:46:08.586Z,97910.05
2019-06-21T19:48:42.865Z,97913.64
2019-06-21T19:51:09.283Z,97919.92
2019-06-21T19:53:37.165Z,97923.19
2019-06-21T19:56:05.582Z,97926.27
2019-06-21T19:58:34.027Z,97925.10
2019-06-21T20:01:02.448Z,97922.66
2019-06-21T20:03:30.809Z,97930.76
2019-06-21T20:05:59.300Z,97928.20
2019-06-21T20:08:27.622Z,97926.03
2019-06-21T20:10:56.021Z,97934.94
2019-06-21T20:13:24.402Z,97934.44
2019-06-21T20:15:52.808Z,97936.20
2019-06-21T20:18:21.245Z,97945.38
2019-06-21T20:20:49.646Z,97940.98
2019-06-21T20:23:19.310Z,97937.02
2019-06-21T20:25:47.712Z,97939.25
2019-06-21T20:28:16.100Z,97943.94
2019-06-21T20:30:44.427Z,97947.30
2019-06-21T20:33:15.753Z,97940.38
2019-06-21T20:35:42.829Z,97937.27
2019-06-21T20:38:11.240Z,97937.27
2019-06-21T20:40:39.531Z,97937.74
2019-06-21T20:43:07.971Z,97939.88
2019-06-21T20:45:36.347Z,97936.27
2019-06-21T20:48:04.764Z,97937.52
2019-06-21T20:50:33.340Z,97934.13
2019-06-21T20:53:01.662Z,97932.41
2019-06-21T20:55:29.962Z,97929.82
2019-06-21T20:57:58.458Z,97924.55
2019-06-21T21:00:29.940Z,97919.86
2019-06-21T21:02:58.493Z,97925.84
2019-06-21T21:05:27.046Z,97925.70
2019-06-21T21:07:55.396Z,97929.80
2019-06-21T21:10:23.777Z,97932.55
2019-06-21T21:12:52.277Z,97932.11
2019-06-21T21:15:20.663Z,97928.79
2019-06-21T21:17:49.051Z,97936.96
2019-06-21T21:20:17.512Z,97936.22
2019-06-21T21:22:45.841Z,97932.64
2019-06-21T21:25:14.267Z,97929.52
2019-06-21T21:27:42.642Z,97932.40
2019-06-21T21:30:11.235Z,97927.58
2019-06-21T21:32:39.776Z,97930.83
2019-06-21T21:35:08.292Z,97929.38
2019-06-21T21:37:36.792Z,97930.02
2019-06-21T21:40:07.296Z,97936.20
2019-06-21T21:42:35.669Z,97934.76
2019-06-21T21:45:06.589Z,97934.84
2019-06-21T21:47:35.033Z,97941.44
2019-06-21T21:50:09.652Z,97941.41
2019-06-21T21:52:40.161Z,97936.84
2019-06-21T21:55:08.845Z,97940.02
2019-06-21T21:57:37.198Z,97939.45
2019-06-21T22:00:14.357Z,97945.94
2019-06-21T22:02:42.666Z,97946.42
2019-06-21T22:05:11.203Z,97941.73
2019-06-21T22:07:39.511Z,97941.07
2019-06-21T22:10:08.889Z,97942.00
2019-06-21T22:12:37.215Z,97945.40
2019-06-21T22:15:06.303Z,97944.25
2019-06-21T22:17:34.654Z,97955.70
2019-06-21T22:20:04.174Z,97946.06
2019-06-21T22:22:32.666Z,97949.08
2019-06-21T22:25:00.978Z,97951.77
2019-06-21T22:27:29.312Z,97960.06
2019-06-21T22:29:57.609Z,97965.02
2019-06-21T22:32:26.064Z,97969.03
2019-06-21T22:34:54.447Z,97972.32
2019-06-21T22:37:22.772Z,97973.28
2019-06-21T22:39:51.946Z,97965.78
2019-06-21T22:42:20.309Z,97965.72
2019-06-21T22:44:48.673Z,97960.59
2019-06-21T22:47:17.231Z,97963.70
2019-06-21T22:49:45.657Z,97961.41
2019-06-21T22:52:13.986Z,97959.16
2019-06-21T22:54:42.304Z,97959.38
2019-06-21T22:57:10.648Z,97952.72
2019-06-21T22:59:39.002Z,97960.89
2019-06-21T23:02:07.405Z,97952.28
2019-06-21T23:04:35.959Z,97956.80
2019-06-21T23:07:04.309Z,97953.45
2019-06-21T23:09:32.727Z,97959.97
2019-06-21T23:12:01.063Z,97951.63
2019-06-21T23:14:29.453Z,97955.83
2019-06-21T23:16:57.852Z,97956.78
2019-06-21T23:19:26.507Z,97963.63
2019-06-21T23:21:54.922Z,97964.07
2019-06-21T23:24:24.934Z,97964.07
2019-06-21T23:26:53.685Z,97965.44
2019-06-21T23:29:22.051Z,97961.52
2019-06-21T23:31:50.446Z,97961.90
2019-06-21T23:34:18.926Z,97964.38
2019-06-21T23:36:47.287Z,97959.83
2019-06-21T23:39:16.137Z,97956.64
2019-06-21T23:41:44.517Z,97959.73
2019-06-21T23:44:12.982Z,97960.59
2019-06-21T23:46:41.603Z,97962.22
2019-06-21T23:49:10.103Z,97961.69
2019-06-21T23:51:38.464Z,97959.91
2019-06-21T23:54:06.830Z,97964.36
2019-06-21T23:56:35.134Z,97967.80
2019-06-21T23:59:03.600Z,97961.78
